シンガポール/チャンギ の空港の天気 - METARとTAF

シンガポール・チャンギ国際空港 ( WSSS / SIN ) - シンガポール Changi
飛行場実況気象(Metar)
観測時間12/01 02:00 SGT (11/30 18:00 UTC)
風向・風速西北西 2m/s
視程8000m
天気現象
少しの雲 雲底高度 550m
全天の8割程度の雲 雲底高度 4880m
気温24℃
湿度94%
気圧1008hPa
METARWSSS 301800Z 30003KT 8000 FEW018 BKN160 24/23 Q1008 NOSIG
過去の天気等 Google飛行場航空写真 Wunderground天気予報

過去48時間のMETAR

飛行場予報(TAF)
発表時間: 12/01 01:00 SGT (11/30 17:00 UTC)
予報対象時間: 1日2時 SGT ~ 2日8時 SGT
風向・風速北 4m/s
視程10km以上
少しの雲 雲底高度 460m
全天の8割程度の雲 雲底高度 610m
1日14時 SGT ~ 1日18時 SGT に一時的に
視程3000m
天気現象雷雨
少しの積乱雲 雲底高度 370m
全天の8割程度の雲 雲底高度 460m
TAF WSSS 301700Z 3018/0200 35007KT 9999 FEW015 BKN020
TEMPO 0106/0110 3000 TSRA FEW012CB BKN015